createdAt,value
2022-08-10T00:01:54.474Z,7.85
2022-08-10T00:04:24.808Z,7.95
2022-08-10T00:06:54.815Z,8.48
2022-08-10T00:09:24.544Z,7.13
2022-08-10T00:11:52.924Z,6.88
2022-08-10T00:14:21.576Z,7.53
2022-08-10T00:16:49.889Z,8.68
2022-08-10T00:19:18.476Z,8.27
2022-08-10T00:21:48.157Z,7.47
2022-08-10T00:24:16.938Z,8.93
2022-08-10T00:27:58.837Z,7.65
2022-08-10T00:29:34.025Z,7.20
2022-08-10T00:32:02.585Z,6.70
2022-08-10T00:34:32.291Z,9.18
2022-08-10T00:37:01.056Z,8.70
2022-08-10T00:39:29.881Z,8.20
2022-08-10T00:42:07.873Z,9.60
2022-08-10T00:44:41.717Z,8.13
2022-08-10T00:47:35.539Z,9.13
2022-08-10T00:50:00.338Z,6.30
2022-08-10T00:52:31.132Z,6.43
2022-08-10T00:55:03.103Z,8.27
2022-08-10T00:57:32.839Z,6.35
2022-08-10T01:00:01.093Z,7.45
2022-08-10T01:02:32.340Z,6.00
2022-08-10T01:05:05.367Z,6.63
2022-08-10T01:08:16.221Z,6.65
2022-08-10T01:11:04.990Z,6.45
2022-08-10T01:13:36.108Z,9.18
2022-08-10T01:16:09.294Z,7.38
2022-08-10T01:19:20.185Z,7.95
2022-08-10T01:21:58.554Z,7.20
2022-08-10T01:24:48.582Z,6.07
2022-08-10T01:27:50.436Z,6.93
2022-08-10T01:30:20.877Z,5.57
2022-08-10T01:32:57.402Z,10.27
2022-08-10T01:35:35.612Z,4.95
2022-08-10T01:38:23.823Z,6.57
2022-08-10T01:41:17.957Z,5.88
2022-08-10T01:44:03.661Z,9.30
2022-08-10T01:46:35.986Z,7.60
2022-08-10T01:49:09.710Z,5.65
2022-08-10T01:51:45.831Z,5.13
2022-08-10T01:54:20.031Z,5.13
2022-08-10T01:56:51.103Z,6.90
2022-08-10T01:59:26.281Z,6.65
2022-08-10T02:02:00.127Z,5.15
2022-08-10T02:04:31.310Z,4.43
2022-08-10T02:07:01.811Z,4.88
2022-08-10T02:09:37.279Z,4.95
2022-08-10T02:12:13.051Z,7.57
2022-08-10T02:14:51.307Z,7.28
2022-08-10T02:17:59.290Z,6.38
2022-08-10T02:20:21.194Z,6.30
2022-08-10T02:22:56.797Z,6.30
2022-08-10T02:25:40.670Z,7.20
2022-08-10T02:28:29.387Z,5.97
2022-08-10T02:31:12.764Z,5.90
2022-08-10T02:33:56.198Z,6.15
2022-08-10T02:36:29.600Z,5.30
2022-08-10T02:39:01.177Z,6.30
2022-08-10T02:45:15.616Z,4.57
2022-08-10T02:45:27.197Z,4.40
2022-08-10T02:47:51.657Z,4.72
2022-08-10T02:50:29.897Z,4.95
2022-08-10T02:53:55.791Z,8.02
2022-08-10T02:56:31.374Z,7.70
2022-08-10T02:59:07.511Z,7.82
2022-08-10T03:01:42.609Z,5.60
2022-08-10T03:04:55.602Z,8.10
2022-08-10T03:07:13.450Z,6.30
2022-08-10T03:09:43.015Z,4.93
2022-08-10T03:12:36.966Z,6.40
2022-08-10T03:15:04.502Z,7.10
2022-08-10T03:17:33.470Z,7.80
2022-08-10T03:20:34.224Z,12.88
2022-08-10T03:22:52.640Z,6.57
2022-08-10T03:25:24.005Z,9.55
2022-08-10T03:27:53.914Z,7.72
2022-08-10T03:30:29.658Z,10.85
2022-08-10T03:33:05.302Z,11.50
2022-08-10T03:35:34.166Z,9.25
2022-08-10T03:38:03.065Z,7.93
2022-08-10T03:40:46.317Z,8.38
2022-08-10T03:43:20.639Z,11.30
2022-08-10T03:45:56.579Z,9.88
2022-08-10T03:48:33.247Z,17.98
2022-08-10T03:51:17.000Z,10.77
2022-08-10T03:54:03.101Z,11.75
2022-08-10T03:56:40.027Z,13.75
2022-08-10T03:59:11.787Z,10.98
2022-08-10T04:02:44.990Z,13.23
2022-08-10T04:04:31.261Z,13.98
2022-08-10T04:07:00.696Z,15.77
2022-08-10T04:09:53.381Z,9.93
2022-08-10T04:12:25.536Z,12.32
2022-08-10T04:14:54.115Z,11.15
2022-08-10T04:18:03.325Z,13.10
2022-08-10T04:20:34.812Z,13.93
2022-08-10T04:23:09.171Z,12.68
2022-08-10T04:25:40.439Z,17.50
2022-08-10T04:28:09.987Z,11.63
2022-08-10T04:30:40.594Z,11.77
2022-08-10T04:33:10.809Z,19.08
2022-08-10T04:35:40.263Z,16.13
2022-08-10T04:38:10.009Z,16.25
2022-08-10T04:40:38.710Z,11.82
2022-08-10T04:43:12.734Z,13.13
2022-08-10T04:45:48.749Z,15.15
2022-08-10T04:48:42.551Z,11.55
2022-08-10T04:51:19.232Z,12.80
2022-08-10T04:54:03.846Z,11.15
2022-08-10T04:56:37.074Z,10.73
2022-08-10T04:59:07.891Z,13.77
2022-08-10T05:02:27.882Z,10.75
2022-08-10T05:04:33.794Z,11.40
2022-08-10T05:07:09.146Z,12.38
2022-08-10T05:10:03.431Z,11.48
2022-08-10T05:14:58.202Z,9.50
2022-08-10T05:17:26.584Z,9.07
2022-08-10T05:20:03.133Z,10.07
2022-08-10T05:22:36.110Z,10.23
2022-08-10T05:25:06.468Z,10.43
2022-08-10T05:27:35.190Z,10.20
2022-08-10T05:30:07.892Z,11.45
2022-08-10T05:32:57.539Z,8.90
2022-08-10T05:35:26.072Z,9.60
2022-08-10T05:38:11.450Z,10.55
2022-08-10T05:40:46.974Z,8.70
2022-08-10T05:43:21.427Z,6.78
2022-08-10T05:46:17.627Z,9.63
2022-08-10T05:48:58.978Z,9.93
2022-08-10T05:51:30.745Z,11.25
2022-08-10T05:54:05.979Z,8.35
2022-08-10T05:56:56.746Z,10.02
2022-08-10T06:00:30.881Z,9.68
2022-08-10T06:02:34.985Z,8.00
2022-08-10T06:05:08.841Z,8.35
2022-08-10T06:10:13.706Z,8.70
2022-08-10T06:12:55.136Z,9.65
2022-08-10T06:15:50.606Z,8.00
2022-08-10T06:18:15.544Z,8.13
2022-08-10T06:20:45.427Z,7.65
2022-08-10T06:23:14.449Z,8.60
2022-08-10T06:26:12.120Z,7.35
2022-08-10T06:28:35.247Z,8.70
2022-08-10T06:31:04.945Z,6.82
2022-08-10T06:33:35.939Z,8.35
2022-08-10T06:36:07.631Z,8.02
2022-08-10T06:38:39.584Z,9.52
2022-08-10T06:41:20.157Z,7.35
2022-08-10T06:44:04.139Z,7.20
2022-08-10T06:46:36.428Z,6.60
2022-08-10T06:49:07.515Z,6.97
2022-08-10T06:51:39.997Z,6.50
2022-08-10T06:54:12.511Z,8.50
2022-08-10T06:57:01.731Z,6.45
2022-08-10T06:59:38.515Z,9.55
2022-08-10T07:02:15.044Z,7.55
2022-08-10T07:04:48.716Z,7.28
2022-08-10T07:07:24.316Z,5.88
2022-08-10T07:09:55.226Z,6.65
2022-08-10T07:12:25.836Z,6.72
2022-08-10T07:14:56.574Z,5.03
2022-08-10T07:17:28.518Z,6.60
2022-08-10T07:19:59.341Z,7.47
2022-08-10T07:23:52.024Z,7.05
2022-08-10T07:25:28.611Z,7.03
2022-08-10T07:28:01.807Z,7.28
2022-08-10T07:30:36.188Z,6.85
2022-08-10T07:33:06.379Z,7.15
2022-08-10T07:35:42.132Z,6.07
2022-08-10T07:38:18.693Z,7.53
2022-08-10T07:40:50.408Z,6.22
2022-08-10T07:43:23.324Z,7.32
2022-08-10T07:45:52.214Z,6.72
2022-08-10T07:48:26.686Z,7.90
2022-08-10T07:50:59.607Z,7.55
2022-08-10T07:53:37.312Z,6.25
2022-08-10T07:56:20.874Z,5.22
2022-08-10T07:59:00.175Z,6.75
2022-08-10T08:01:31.895Z,5.57
2022-08-10T08:04:05.769Z,6.22
2022-08-10T08:06:42.951Z,6.35
2022-08-10T08:09:11.749Z,5.93
2022-08-10T08:11:42.945Z,8.15
2022-08-10T08:14:14.280Z,7.53
2022-08-10T08:16:46.558Z,7.05
2022-08-10T08:19:37.353Z,7.05
2022-08-10T08:24:04.927Z,7.55
2022-08-10T08:24:58.345Z,7.00
2022-08-10T08:27:28.511Z,7.43
2022-08-10T08:29:58.277Z,4.95
2022-08-10T08:32:29.600Z,7.90
2022-08-10T08:38:33.737Z,5.35
2022-08-10T08:40:26.582Z,5.43
2022-08-10T08:43:13.210Z,4.63
2022-08-10T08:46:14.384Z,6.88
2022-08-10T08:50:07.585Z,7.15
2022-08-10T08:52:21.443Z,6.47
2022-08-10T08:54:52.520Z,6.68
2022-08-10T08:57:49.511Z,6.80
2022-08-10T09:00:37.970Z,6.18
2022-08-10T09:03:26.222Z,5.75
2022-08-10T09:06:12.247Z,5.07
2022-08-10T09:09:18.255Z,4.85
2022-08-10T09:12:13.520Z,5.53
2022-08-10T09:14:58.031Z,5.85
2022-08-10T09:17:35.357Z,5.95
2022-08-10T09:20:35.552Z,5.57
2022-08-10T09:23:20.300Z,5.00
2022-08-10T09:26:13.965Z,5.32
2022-08-10T09:28:43.803Z,5.15
2022-08-10T09:31:25.114Z,6.10
2022-08-10T09:36:24.600Z,4.72
2022-08-10T09:37:06.024Z,8.43
2022-08-10T09:40:56.432Z,4.63
2022-08-10T09:43:25.535Z,5.47
2022-08-10T09:46:15.442Z,5.40
2022-08-10T09:48:50.548Z,5.88
2022-08-10T09:51:54.670Z,6.07
2022-08-10T09:54:45.412Z,5.88
2022-08-10T09:58:01.913Z,6.50
2022-08-10T10:00:38.301Z,5.18
2022-08-10T10:03:24.056Z,4.95
2022-08-10T10:06:16.678Z,4.50
2022-08-10T10:08:49.096Z,6.03
2022-08-10T10:11:31.453Z,6.13
2022-08-10T10:15:25.297Z,4.35
2022-08-10T10:18:03.330Z,6.10
2022-08-10T10:21:00.758Z,5.47
2022-08-10T10:24:21.041Z,4.30
2022-08-10T10:26:56.647Z,5.93
2022-08-10T10:29:57.914Z,5.70
2022-08-10T10:32:26.094Z,5.95
2022-08-10T10:35:28.697Z,6.22
2022-08-10T10:38:02.896Z,4.22
2022-08-10T10:40:53.387Z,4.35
2022-08-10T10:44:01.336Z,4.45
2022-08-10T10:46:45.247Z,6.50
2022-08-10T10:49:47.224Z,4.03
2022-08-10T10:52:24.780Z,5.30
2022-08-10T10:55:12.995Z,4.30
2022-08-10T10:58:00.046Z,5.53
2022-08-10T11:00:39.395Z,4.72
2022-08-10T11:03:29.322Z,5.80
2022-08-10T11:06:40.074Z,5.18
2022-08-10T11:10:03.806Z,4.72
2022-08-10T11:12:30.681Z,4.47
2022-08-10T11:15:34.713Z,5.55
2022-08-10T11:18:31.622Z,4.90
2022-08-10T11:21:18.773Z,4.65
2022-08-10T11:24:46.816Z,4.32
2022-08-10T11:26:54.453Z,4.63
2022-08-10T11:29:30.422Z,6.03
2022-08-10T11:32:21.500Z,4.47
2022-08-10T11:35:10.895Z,4.50
2022-08-10T11:38:34.209Z,4.07
2022-08-10T11:42:10.244Z,4.47
2022-08-10T11:44:31.263Z,4.85
2022-08-10T11:47:13.134Z,4.15
2022-08-10T11:49:55.655Z,4.40
2022-08-10T11:52:39.204Z,5.03
2022-08-10T11:55:22.439Z,3.97
2022-08-10T11:57:55.836Z,4.68
2022-08-10T12:00:33.146Z,3.88
2022-08-10T12:03:08.419Z,4.63
2022-08-10T12:05:54.212Z,4.25
2022-08-10T12:10:03.451Z,5.45
2022-08-10T12:11:23.823Z,3.80
2022-08-10T12:14:20.860Z,3.85
2022-08-10T12:16:59.525Z,3.70
2022-08-10T12:19:36.654Z,3.97
2022-08-10T12:22:57.468Z,3.75
2022-08-10T12:25:56.015Z,4.28
2022-08-10T12:28:56.732Z,3.63
2022-08-10T12:31:35.188Z,4.82
2022-08-10T12:34:18.884Z,3.50
2022-08-10T12:37:11.920Z,4.13
2022-08-10T12:40:17.777Z,4.18
2022-08-10T12:43:13.416Z,3.80
2022-08-10T12:45:54.000Z,4.45
2022-08-10T12:48:31.866Z,3.42
2022-08-10T12:51:05.450Z,4.53
2022-08-10T12:53:55.600Z,3.35
2022-08-10T12:56:33.963Z,5.53
2022-08-10T12:59:06.670Z,5.20
2022-08-10T13:02:09.545Z,4.60
2022-08-10T13:04:36.334Z,4.95
2022-08-10T13:07:06.937Z,4.03
2022-08-10T13:09:56.578Z,3.65
2022-08-10T13:12:37.209Z,3.33
2022-08-10T13:15:48.189Z,4.30
2022-08-10T13:18:26.315Z,4.00
2022-08-10T13:20:59.360Z,3.35
2022-08-10T13:23:30.052Z,3.55
2022-08-10T13:26:00.940Z,3.65
2022-08-10T13:28:49.537Z,3.88
2022-08-10T13:32:03.634Z,4.28
2022-08-10T13:34:43.842Z,3.72
2022-08-10T13:37:10.806Z,3.88
2022-08-10T13:39:59.883Z,3.60
2022-08-10T13:42:35.910Z,3.83
2022-08-10T13:45:25.833Z,3.20
2022-08-10T13:48:14.797Z,3.38
2022-08-10T13:50:46.401Z,3.53
2022-08-10T13:53:16.924Z,4.07
2022-08-10T13:55:55.304Z,3.53
2022-08-10T13:58:29.387Z,3.20
2022-08-10T14:01:00.562Z,3.33
2022-08-10T14:03:34.425Z,4.13
2022-08-10T14:06:05.415Z,3.33
2022-08-10T14:08:35.620Z,3.63
2022-08-10T14:11:11.594Z,3.47
2022-08-10T14:13:45.661Z,3.25
2022-08-10T14:16:15.730Z,3.58
2022-08-10T14:18:46.060Z,3.47
2022-08-10T14:21:15.094Z,3.20
2022-08-10T14:23:48.623Z,4.07
2022-08-10T14:26:29.106Z,3.20
2022-08-10T14:29:03.881Z,3.10
2022-08-10T14:31:36.235Z,3.20
2022-08-10T14:34:10.636Z,4.20
2022-08-10T14:36:58.282Z,4.68
2022-08-10T14:39:33.269Z,3.50
2022-08-10T14:42:15.073Z,4.03
2022-08-10T14:45:03.433Z,4.28
2022-08-10T14:47:52.559Z,3.45
2022-08-10T14:50:31.766Z,3.28
2022-08-10T14:53:09.418Z,4.97
2022-08-10T14:55:58.979Z,3.38
2022-08-10T14:59:06.854Z,3.23
2022-08-10T15:02:01.315Z,3.50
2022-08-10T15:04:31.089Z,3.03
2022-08-10T15:07:12.166Z,9.45
2022-08-10T15:09:59.541Z,3.72
2022-08-10T15:12:36.410Z,3.42
2022-08-10T15:15:09.612Z,3.17
2022-08-10T15:17:43.220Z,3.40
2022-08-10T15:20:21.520Z,4.65
2022-08-10T15:22:58.843Z,3.40
2022-08-10T15:25:29.206Z,4.60
2022-08-10T15:28:08.289Z,3.10
2022-08-10T15:30:43.239Z,3.03
2022-08-10T15:34:02.864Z,3.65
2022-08-10T15:36:45.241Z,4.18
2022-08-10T15:40:26.000Z,3.40
2022-08-10T15:42:25.875Z,2.78
2022-08-10T15:44:55.184Z,2.90
2022-08-10T15:47:45.934Z,3.40
2022-08-10T15:50:39.839Z,3.08
2022-08-10T15:53:17.165Z,3.00
2022-08-10T15:55:51.665Z,3.95
2022-08-10T15:58:40.515Z,3.00
2022-08-10T16:02:03.897Z,4.07
2022-08-10T16:04:08.491Z,4.68
2022-08-10T16:06:54.039Z,3.47
2022-08-10T16:10:23.380Z,5.95
2022-08-10T16:12:29.197Z,3.30
2022-08-10T16:15:04.341Z,3.60
2022-08-10T16:17:55.732Z,3.40
2022-08-10T16:20:47.909Z,2.70
2022-08-10T16:23:31.150Z,3.40
2022-08-10T16:26:14.849Z,2.92
2022-08-10T16:28:51.946Z,3.17
2022-08-10T16:31:23.381Z,2.97
2022-08-10T16:33:55.342Z,3.13
2022-08-10T16:36:41.695Z,2.88
2022-08-10T16:39:57.236Z,3.47
2022-08-10T16:42:05.620Z,3.83
2022-08-10T16:45:02.716Z,3.90
2022-08-10T16:47:34.652Z,3.28
2022-08-10T16:50:09.348Z,4.93
2022-08-10T16:52:39.896Z,3.25
2022-08-10T16:55:48.175Z,3.33
2022-08-10T16:58:15.300Z,2.95
2022-08-10T17:00:45.669Z,3.92
2022-08-10T17:04:04.356Z,2.65
2022-08-10T17:06:11.134Z,2.63
2022-08-10T17:08:49.090Z,3.08
2022-08-10T17:11:20.941Z,4.60
2022-08-10T17:16:17.712Z,3.88
2022-08-10T17:18:48.334Z,2.80
2022-08-10T17:21:27.902Z,3.75
2022-08-10T17:24:00.548Z,2.83
2022-08-10T17:26:36.181Z,3.40
2022-08-10T17:29:58.374Z,3.20
2022-08-10T17:32:17.909Z,2.60
2022-08-10T17:34:51.896Z,2.50
2022-08-10T17:37:24.695Z,2.70
2022-08-10T17:40:03.399Z,3.13
2022-08-10T17:42:33.005Z,3.05
2022-08-10T17:45:03.451Z,3.90
2022-08-10T17:47:32.884Z,3.20
2022-08-10T17:50:01.370Z,3.20
2022-08-10T17:52:33.339Z,2.70
2022-08-10T17:55:05.451Z,2.60
2022-08-10T17:57:37.870Z,3.90
2022-08-10T18:00:13.503Z,2.50
2022-08-10T18:02:47.427Z,2.90
2022-08-10T18:05:17.205Z,2.97
2022-08-10T18:07:51.881Z,2.63
2022-08-10T18:10:22.481Z,2.60
2022-08-10T18:12:54.223Z,3.30
2022-08-10T18:17:59.524Z,2.80
2022-08-10T18:20:37.471Z,4.35
2022-08-10T18:23:07.587Z,3.33
2022-08-10T18:25:41.614Z,2.72
2022-08-10T18:28:18.116Z,2.40
2022-08-10T18:30:50.443Z,2.88
2022-08-10T18:33:32.190Z,2.67
2022-08-10T18:36:03.386Z,2.88
2022-08-10T18:38:35.472Z,2.90
2022-08-10T18:41:09.209Z,2.40
2022-08-10T18:44:07.109Z,3.35
2022-08-10T18:46:46.641Z,2.42
2022-08-10T18:49:37.934Z,2.72
2022-08-10T18:52:10.196Z,2.47
2022-08-10T18:54:47.774Z,2.58
2022-08-10T18:57:24.914Z,2.83
2022-08-10T19:00:12.489Z,2.60
2022-08-10T19:02:56.080Z,3.90
2022-08-10T19:06:02.017Z,2.65
2022-08-10T19:08:49.173Z,2.50
2022-08-10T19:11:53.642Z,3.25
2022-08-10T19:14:35.574Z,2.50
2022-08-10T19:18:03.278Z,3.35
2022-08-10T19:21:02.826Z,2.50
2022-08-10T19:24:12.230Z,2.40
2022-08-10T19:26:54.421Z,3.38
2022-08-10T19:30:09.520Z,3.00
2022-08-10T19:32:55.418Z,2.53
2022-08-10T19:36:03.328Z,4.43
2022-08-10T19:38:37.386Z,4.50
2022-08-10T19:41:32.736Z,5.80
2022-08-10T19:44:40.575Z,4.85
2022-08-10T19:47:31.071Z,5.90
2022-08-10T19:50:11.239Z,4.82
2022-08-10T19:53:00.052Z,7.10
2022-08-10T19:55:40.912Z,5.82
2022-08-10T19:58:35.820Z,7.22
2022-08-10T20:01:07.045Z,4.78
2022-08-10T20:06:28.113Z,7.25
2022-08-10T20:09:30.063Z,3.25
2022-08-10T20:12:03.440Z,4.05
2022-08-10T20:14:36.430Z,3.47
2022-08-10T20:17:13.574Z,5.15
2022-08-10T20:20:00.582Z,6.53
2022-08-10T20:22:35.772Z,5.38
2022-08-10T20:25:14.158Z,7.10
2022-08-10T20:28:15.247Z,6.82
2022-08-10T20:31:17.791Z,4.38
2022-08-10T20:34:10.307Z,4.55
2022-08-10T20:36:57.318Z,5.55
2022-08-10T20:39:37.830Z,4.07
2022-08-10T20:42:33.678Z,4.32
2022-08-10T20:45:08.911Z,5.05
2022-08-10T20:48:03.811Z,5.57
2022-08-10T20:50:40.322Z,4.95
2022-08-10T20:53:15.699Z,5.60
2022-08-10T20:55:58.651Z,4.85
2022-08-10T20:59:05.484Z,4.28
2022-08-10T21:02:10.915Z,4.03
2022-08-10T21:05:06.908Z,5.32
2022-08-10T21:08:01.084Z,3.38
2022-08-10T21:10:48.290Z,5.35
2022-08-10T21:13:53.192Z,5.88
2022-08-10T21:16:47.533Z,3.97
2022-08-10T21:19:40.380Z,7.40
2022-08-10T21:22:26.371Z,3.25
2022-08-10T21:25:02.492Z,5.95
2022-08-10T21:27:49.051Z,4.05
2022-08-10T21:30:44.563Z,5.35
2022-08-10T21:33:23.859Z,4.07
2022-08-10T21:36:18.510Z,5.30
2022-08-10T21:39:09.857Z,3.78
2022-08-10T21:42:14.551Z,6.25
2022-08-10T21:45:58.163Z,3.60
2022-08-10T21:48:59.074Z,4.93
2022-08-10T21:52:18.647Z,3.80
2022-08-10T21:55:20.265Z,6.40
2022-08-10T21:58:06.977Z,3.55
2022-08-10T22:01:00.794Z,2.92
2022-08-10T22:03:49.007Z,3.30
2022-08-10T22:06:52.395Z,4.03
2022-08-10T22:09:47.343Z,3.20
2022-08-10T22:12:38.830Z,2.65
2022-08-10T22:16:05.291Z,3.33
2022-08-10T22:18:59.471Z,4.30
2022-08-10T22:22:27.249Z,5.10
2022-08-10T22:25:24.393Z,3.03
2022-08-10T22:28:12.477Z,3.92
2022-08-10T22:31:32.479Z,3.47
2022-08-10T22:34:56.155Z,4.30
2022-08-10T22:37:58.004Z,5.55
2022-08-10T22:43:48.485Z,3.85
2022-08-10T22:46:46.564Z,3.13
2022-08-10T22:49:25.188Z,4.30
2022-08-10T22:51:57.927Z,2.95
2022-08-10T22:55:06.457Z,5.28
2022-08-10T22:57:53.912Z,4.18
2022-08-10T23:00:30.863Z,3.58
2022-08-10T23:03:10.758Z,3.10
2022-08-10T23:06:23.473Z,4.57
2022-08-10T23:08:59.431Z,2.53
2022-08-10T23:11:32.418Z,3.95
2022-08-10T23:14:04.424Z,5.55
2022-08-10T23:17:07.100Z,3.20
2022-08-10T23:19:45.857Z,2.92
2022-08-10T23:22:16.873Z,3.47
2022-08-10T23:24:51.961Z,3.15
2022-08-10T23:27:37.657Z,3.05
2022-08-10T23:30:17.563Z,4.18
2022-08-10T23:32:51.380Z,3.75
2022-08-10T23:36:04.335Z,4.35
2022-08-10T23:38:15.222Z,3.22
2022-08-10T23:40:49.975Z,3.00
2022-08-10T23:43:22.744Z,3.40
2022-08-10T23:45:57.613Z,3.60
2022-08-10T23:48:29.764Z,3.30
2022-08-10T23:51:04.410Z,3.72
2022-08-10T23:53:47.909Z,3.08
2022-08-10T23:56:22.256Z,3.38
2022-08-10T23:58:54.626Z,4.15
